createdAt,value
2018-03-14T00:01:21.068Z,4.47
2018-03-14T00:03:49.318Z,4.40
2018-03-14T00:06:17.616Z,4.50
2018-03-14T00:08:46.080Z,4.70
2018-03-14T00:11:14.376Z,4.43
2018-03-14T00:13:42.729Z,4.90
2018-03-14T00:16:11.044Z,5.00
2018-03-14T00:18:39.328Z,5.03
2018-03-14T00:21:07.588Z,4.27
2018-03-14T00:23:35.897Z,4.37
2018-03-14T00:26:04.154Z,4.40
2018-03-14T00:28:32.443Z,4.47
2018-03-14T00:31:00.708Z,4.30
2018-03-14T00:33:29.013Z,4.57
2018-03-14T00:35:57.261Z,5.10
2018-03-14T00:38:25.536Z,4.70
2018-03-14T00:40:53.784Z,5.20
2018-03-14T00:43:22.076Z,4.85
2018-03-14T00:45:50.334Z,5.00
2018-03-14T00:48:18.651Z,5.00
2018-03-14T00:50:46.907Z,5.20
2018-03-14T00:53:15.229Z,5.23
2018-03-14T00:55:43.472Z,4.90
2018-03-14T00:58:11.772Z,5.33
2018-03-14T01:00:40.017Z,4.93
2018-03-14T01:03:08.295Z,5.23
2018-03-14T01:05:36.562Z,4.70
2018-03-14T01:08:05.062Z,5.20
2018-03-14T01:10:33.314Z,5.20
2018-03-14T01:13:01.591Z,5.10
2018-03-14T01:15:29.880Z,4.70
2018-03-14T01:17:58.126Z,4.97
2018-03-14T01:20:26.410Z,4.97
2018-03-14T01:22:54.678Z,4.20
2018-03-14T01:25:22.953Z,4.93
2018-03-14T01:27:51.259Z,4.93
2018-03-14T01:30:19.568Z,4.70
2018-03-14T01:32:47.797Z,4.83
2018-03-14T01:35:16.067Z,4.78
2018-03-14T01:37:44.340Z,4.35
2018-03-14T01:40:12.636Z,4.68
2018-03-14T01:42:40.871Z,4.37
2018-03-14T01:45:09.167Z,5.12
2018-03-14T01:47:37.448Z,4.70
2018-03-14T01:50:05.723Z,4.60
2018-03-14T01:52:33.995Z,4.60
2018-03-14T01:55:02.271Z,4.93
2018-03-14T01:57:30.537Z,4.83
2018-03-14T01:59:58.811Z,4.87
2018-03-14T02:02:27.068Z,5.27
2018-03-14T02:04:55.367Z,5.10
2018-03-14T02:07:23.636Z,5.27
2018-03-14T02:09:51.898Z,4.93
2018-03-14T02:12:20.188Z,5.43
2018-03-14T02:14:48.447Z,5.40
2018-03-14T02:17:16.757Z,4.67
2018-03-14T02:19:45.029Z,4.27
2018-03-14T02:22:13.311Z,4.75
2018-03-14T02:24:41.759Z,5.27
2018-03-14T02:27:10.455Z,5.50
2018-03-14T02:29:38.775Z,5.10
2018-03-14T02:32:07.037Z,5.03
2018-03-14T02:34:35.309Z,4.87
2018-03-14T02:37:03.572Z,4.75
2018-03-14T02:39:31.967Z,4.90
2018-03-14T02:42:00.261Z,5.05
2018-03-14T02:44:28.508Z,4.77
2018-03-14T02:46:56.788Z,4.00
2018-03-14T02:49:25.041Z,4.70
2018-03-14T02:51:53.643Z,4.43
2018-03-14T02:54:21.907Z,5.00
2018-03-14T02:56:50.200Z,5.20
2018-03-14T02:59:18.472Z,5.12
2018-03-14T03:01:46.751Z,4.33
2018-03-14T03:04:15.025Z,4.70
2018-03-14T03:06:43.308Z,4.50
2018-03-14T03:09:11.788Z,4.65
2018-03-14T03:11:40.046Z,4.63
2018-03-14T03:14:08.340Z,4.73
2018-03-14T03:16:36.608Z,5.50
2018-03-14T03:19:04.897Z,4.40
2018-03-14T03:21:33.155Z,5.07
2018-03-14T03:24:01.452Z,4.90
2018-03-14T03:26:29.715Z,5.50
2018-03-14T03:28:58.027Z,4.95
2018-03-14T03:31:26.294Z,5.50
2018-03-14T03:33:54.568Z,5.27
2018-03-14T03:36:22.826Z,5.87
2018-03-14T03:38:51.104Z,5.37
2018-03-14T03:41:19.375Z,6.10
2018-03-14T03:43:47.676Z,6.30
2018-03-14T03:46:15.924Z,5.27
2018-03-14T03:48:44.228Z,5.73
2018-03-14T03:51:12.475Z,5.40
2018-03-14T03:53:40.771Z,5.20
2018-03-14T03:56:09.067Z,5.60
2018-03-14T03:58:37.357Z,4.80
2018-03-14T04:01:05.608Z,6.00
2018-03-14T04:03:34.231Z,5.43
2018-03-14T04:06:02.516Z,5.40
2018-03-14T04:08:30.763Z,5.90
2018-03-14T04:10:59.048Z,5.63
2018-03-14T04:13:27.296Z,5.57
2018-03-14T04:15:55.652Z,5.17
2018-03-14T04:18:23.898Z,6.03
2018-03-14T04:20:52.220Z,5.57
2018-03-14T04:23:20.481Z,5.78
2018-03-14T04:25:48.769Z,5.33
2018-03-14T04:28:17.041Z,5.63
2018-03-14T04:30:45.325Z,5.57
2018-03-14T04:33:13.590Z,6.18
2018-03-14T04:35:41.868Z,6.57
2018-03-14T04:38:10.151Z,6.00
2018-03-14T04:40:38.428Z,6.30
2018-03-14T04:43:06.696Z,6.40
2018-03-14T04:45:34.996Z,5.83
2018-03-14T04:48:03.275Z,6.40
2018-03-14T04:50:31.592Z,5.97
2018-03-14T04:52:59.865Z,6.17
2018-03-14T04:55:28.147Z,6.60
2018-03-14T04:57:56.428Z,6.13
2018-03-14T05:00:24.708Z,6.43
2018-03-14T05:02:52.972Z,6.70
2018-03-14T05:05:21.872Z,5.80
2018-03-14T05:07:50.149Z,5.93
2018-03-14T05:10:18.415Z,6.43
2018-03-14T05:12:46.825Z,5.87
2018-03-14T05:15:15.099Z,6.87
2018-03-14T05:17:43.400Z,7.23
2018-03-14T05:20:11.661Z,6.35
2018-03-14T05:22:39.948Z,6.47
2018-03-14T05:25:08.212Z,7.10
2018-03-14T05:27:36.556Z,6.55
2018-03-14T05:30:05.372Z,7.40
2018-03-14T05:32:33.655Z,7.05
2018-03-14T05:35:01.915Z,7.37
2018-03-14T05:37:30.208Z,7.30
2018-03-14T05:39:58.491Z,6.57
2018-03-14T05:42:26.766Z,7.87
2018-03-14T05:44:55.038Z,7.50
2018-03-14T05:47:23.339Z,7.87
2018-03-14T05:49:51.575Z,7.47
2018-03-14T05:52:19.934Z,7.62
2018-03-14T05:54:48.212Z,7.63
2018-03-14T05:57:16.510Z,6.93
2018-03-14T05:59:44.834Z,7.30
2018-03-14T06:02:13.084Z,7.45
2018-03-14T06:04:41.344Z,7.40
2018-03-14T06:07:09.649Z,6.43
2018-03-14T06:09:37.940Z,6.90
2018-03-14T06:12:06.203Z,7.43
2018-03-14T06:14:34.558Z,8.33
2018-03-14T06:17:02.846Z,7.77
2018-03-14T06:19:31.200Z,7.63
2018-03-14T06:22:00.337Z,7.20
2018-03-14T06:24:28.626Z,7.80
2018-03-14T06:26:56.893Z,8.60
2018-03-14T06:29:25.188Z,8.20
2018-03-14T06:31:53.469Z,8.37
2018-03-14T06:34:21.783Z,8.75
2018-03-14T06:36:50.046Z,8.70
2018-03-14T06:39:18.364Z,8.77
2018-03-14T06:41:46.771Z,9.10
2018-03-14T06:44:15.056Z,8.63
2018-03-14T06:46:43.316Z,8.67
2018-03-14T06:49:11.733Z,9.50
2018-03-14T06:51:40.056Z,9.13
2018-03-14T06:54:08.356Z,8.73
2018-03-14T06:56:36.641Z,9.03
2018-03-14T06:59:17.345Z,9.30
2018-03-14T07:01:57.420Z,9.10
2018-03-14T07:04:44.337Z,9.17
2018-03-14T07:07:12.620Z,9.43
2018-03-14T07:09:40.969Z,8.47
2018-03-14T07:12:09.247Z,8.63
2018-03-14T07:14:37.528Z,10.20
2018-03-14T07:17:05.812Z,9.80
2018-03-14T07:19:34.356Z,9.00
2018-03-14T07:22:02.688Z,10.17
2018-03-14T07:24:31.010Z,9.70
2018-03-14T07:26:59.360Z,8.90
2018-03-14T07:29:27.633Z,9.40
2018-03-14T07:31:56.056Z,9.77
2018-03-14T07:34:24.362Z,9.02
2018-03-14T07:36:52.650Z,9.80
2018-03-14T07:39:20.919Z,9.50
2018-03-14T07:41:49.221Z,9.07
2018-03-14T07:44:17.512Z,9.18
2018-03-14T07:46:45.808Z,9.70
2018-03-14T07:49:14.109Z,9.65
2018-03-14T07:51:42.414Z,9.50
2018-03-14T07:54:10.718Z,10.40
2018-03-14T07:56:39.026Z,9.73
2018-03-14T07:59:08.335Z,9.30
2018-03-14T08:01:36.632Z,9.30
2018-03-14T08:04:05.035Z,9.98
2018-03-14T08:06:33.496Z,9.30
2018-03-14T08:09:01.867Z,10.33
2018-03-14T08:11:30.136Z,9.73
2018-03-14T08:13:58.535Z,10.27
2018-03-14T08:16:26.743Z,9.13
2018-03-14T08:18:55.077Z,9.57
2018-03-14T08:21:23.438Z,9.30
2018-03-14T08:23:51.686Z,9.63
2018-03-14T08:26:19.928Z,9.03
2018-03-14T08:28:48.234Z,9.90
2018-03-14T08:31:16.533Z,9.37
2018-03-14T08:33:44.855Z,9.63
2018-03-14T08:36:13.118Z,11.13
2018-03-14T08:38:41.425Z,9.93
2018-03-14T08:41:09.707Z,9.32
2018-03-14T08:43:37.995Z,9.30
2018-03-14T08:46:06.294Z,9.10
2018-03-14T08:48:34.607Z,9.70
2018-03-14T08:51:02.931Z,9.32
2018-03-14T08:53:31.252Z,10.43
2018-03-14T08:55:59.529Z,13.30
2018-03-14T08:58:27.900Z,8.53
2018-03-14T09:00:56.215Z,9.20
2018-03-14T09:03:24.548Z,9.83
2018-03-14T09:05:52.846Z,9.23
2018-03-14T09:08:27.924Z,8.37
2018-03-14T09:10:56.220Z,7.60
2018-03-14T09:13:24.522Z,8.07
2018-03-14T09:15:52.834Z,7.10
2018-03-14T09:18:21.106Z,8.07
2018-03-14T09:20:49.396Z,8.70
2018-03-14T09:23:17.703Z,8.47
2018-03-14T09:25:45.995Z,7.63
2018-03-14T09:28:14.307Z,7.60
2018-03-14T09:30:42.599Z,8.00
2018-03-14T09:33:10.859Z,8.18
2018-03-14T09:35:39.214Z,6.77
2018-03-14T09:38:07.491Z,7.70
2018-03-14T09:40:35.797Z,8.65
2018-03-14T09:43:04.496Z,8.30
2018-03-14T09:45:32.872Z,7.33
2018-03-14T09:48:01.831Z,6.67
2018-03-14T09:50:30.293Z,7.20
2018-03-14T09:52:59.073Z,6.13
2018-03-14T09:55:27.356Z,5.80
2018-03-14T09:57:55.665Z,6.97
2018-03-14T10:00:24.016Z,6.40
2018-03-14T10:02:52.363Z,7.30
2018-03-14T10:05:20.725Z,8.63
2018-03-14T10:07:49.027Z,7.40
2018-03-14T10:10:18.396Z,6.90
2018-03-14T10:12:50.285Z,6.47
2018-03-14T10:15:18.581Z,6.43
2018-03-14T10:17:46.898Z,5.50
2018-03-14T10:20:15.378Z,6.03
2018-03-14T10:22:44.213Z,6.53
2018-03-14T10:25:12.482Z,7.37
2018-03-14T10:27:40.839Z,4.90
2018-03-14T10:30:09.155Z,5.75
2018-03-14T10:32:37.465Z,5.50
2018-03-14T10:35:06.605Z,6.15
2018-03-14T10:37:34.920Z,5.63
2018-03-14T10:40:03.784Z,5.70
2018-03-14T10:42:32.237Z,5.40
2018-03-14T10:45:01.048Z,5.50
2018-03-14T10:47:29.343Z,6.80
2018-03-14T10:49:57.679Z,5.47
2018-03-14T10:52:25.969Z,6.18
2018-03-14T10:54:54.312Z,5.77
2018-03-14T10:57:22.596Z,5.62
2018-03-14T10:59:50.900Z,5.33
2018-03-14T11:02:23.095Z,5.80
2018-03-14T11:04:51.380Z,6.50
2018-03-14T11:07:19.698Z,5.97
2018-03-14T11:09:48.840Z,6.20
2018-03-14T11:12:17.178Z,6.43
2018-03-14T11:14:45.533Z,6.67
2018-03-14T11:17:13.839Z,6.68
2018-03-14T11:19:42.156Z,5.93
2018-03-14T11:22:10.464Z,6.20
2018-03-14T11:24:38.804Z,5.93
2018-03-14T11:27:07.123Z,5.60
2018-03-14T11:29:35.453Z,5.77
2018-03-14T11:32:03.771Z,5.67
2018-03-14T11:34:32.159Z,5.57
2018-03-14T11:37:00.520Z,23.00
2018-03-14T11:39:28.826Z,6.37
2018-03-14T11:41:57.193Z,6.20
2018-03-14T11:44:26.461Z,5.40
2018-03-14T11:46:55.183Z,5.55
2018-03-14T11:49:24.490Z,6.07
2018-03-14T11:51:52.778Z,5.40
2018-03-14T11:54:21.548Z,5.60
2018-03-14T11:56:49.888Z,5.80
2018-03-14T11:59:18.127Z,5.83
2018-03-14T12:01:46.657Z,5.60
2018-03-14T12:04:14.994Z,4.75
2018-03-14T12:06:43.266Z,5.67
2018-03-14T12:09:12.576Z,6.57
2018-03-14T12:11:41.120Z,5.70
2018-03-14T12:14:09.397Z,5.53
2018-03-14T12:16:37.720Z,5.77
2018-03-14T12:19:05.993Z,5.40
2018-03-14T12:21:34.392Z,5.87
2018-03-14T12:24:02.672Z,5.70
2018-03-14T12:26:31.000Z,5.70
2018-03-14T12:28:59.352Z,5.70
2018-03-14T12:31:27.668Z,5.80
2018-03-14T12:33:55.920Z,6.60
2018-03-14T12:36:24.231Z,5.90
2018-03-14T12:38:52.504Z,5.37
2018-03-14T12:41:20.864Z,5.10
2018-03-14T12:43:49.145Z,5.67
2018-03-14T12:46:17.451Z,13.90
2018-03-14T12:48:45.722Z,5.17
2018-03-14T12:51:14.121Z,5.25
2018-03-14T12:53:42.388Z,5.43
2018-03-14T12:56:10.767Z,5.33
2018-03-14T12:58:39.624Z,5.27
2018-03-14T13:01:07.919Z,5.10
2018-03-14T13:03:36.195Z,4.83
2018-03-14T13:06:04.541Z,4.57
2018-03-14T13:08:33.034Z,5.03
2018-03-14T13:11:01.962Z,4.70
2018-03-14T13:13:30.326Z,4.30
2018-03-14T13:15:58.597Z,3.70
2018-03-14T13:18:26.903Z,3.97
2018-03-14T13:20:55.177Z,4.70
2018-03-14T13:23:23.732Z,3.67
2018-03-14T13:25:51.976Z,4.33
2018-03-14T13:28:20.281Z,4.70
2018-03-14T13:30:48.797Z,4.60
2018-03-14T13:33:17.120Z,4.32
2018-03-14T13:35:45.395Z,3.53
2018-03-14T13:38:13.694Z,4.53
2018-03-14T13:40:41.981Z,3.90
2018-03-14T13:43:10.248Z,3.60
2018-03-14T13:45:38.549Z,4.30
2018-03-14T13:48:06.867Z,4.20
2018-03-14T13:50:35.138Z,3.87
2018-03-14T13:53:03.461Z,4.03
2018-03-14T13:55:32.147Z,4.40
2018-03-14T13:58:00.434Z,4.60
2018-03-14T14:00:28.723Z,3.97
2018-03-14T14:02:57.916Z,3.67
2018-03-14T14:05:26.182Z,3.23
2018-03-14T14:07:54.463Z,4.67
2018-03-14T14:10:22.843Z,3.67
2018-03-14T14:12:51.113Z,3.80
2018-03-14T14:15:21.102Z,2.67
2018-03-14T14:17:49.521Z,2.60
2018-03-14T14:20:18.808Z,3.03
2018-03-14T14:22:47.111Z,3.10
2018-03-14T14:25:15.480Z,3.60
2018-03-14T14:27:43.759Z,3.10
2018-03-14T14:30:12.081Z,3.22
2018-03-14T14:32:40.446Z,3.37
2018-03-14T14:35:08.803Z,2.78
2018-03-14T14:37:37.111Z,3.30
2018-03-14T14:40:05.685Z,2.67
2018-03-14T14:42:34.676Z,2.70
2018-03-14T14:45:04.447Z,3.30
2018-03-14T14:47:32.799Z,3.50
2018-03-14T14:50:01.107Z,4.00
2018-03-14T14:52:29.400Z,3.60
2018-03-14T14:54:58.645Z,3.60
2018-03-14T14:57:26.980Z,3.97
2018-03-14T14:59:55.288Z,3.77
2018-03-14T15:02:23.555Z,4.17
2018-03-14T15:04:52.822Z,6.23
2018-03-14T15:07:22.019Z,4.40
2018-03-14T15:09:50.407Z,4.90
2018-03-14T15:12:18.663Z,4.83
2018-03-14T15:14:46.960Z,6.73
2018-03-14T15:17:15.237Z,5.22
2018-03-14T15:19:43.497Z,4.70
2018-03-14T15:22:11.807Z,4.87
2018-03-14T15:24:40.147Z,5.20
2018-03-14T15:27:08.444Z,5.40
2018-03-14T15:29:36.738Z,5.67
2018-03-14T15:32:05.030Z,5.10
2018-03-14T15:34:33.306Z,5.20
2018-03-14T15:37:01.728Z,5.27
2018-03-14T15:39:30.002Z,5.30
2018-03-14T15:41:58.315Z,4.83
2018-03-14T15:44:26.594Z,4.22
2018-03-14T15:46:54.884Z,4.37
2018-03-14T15:49:23.154Z,4.17
2018-03-14T15:51:52.280Z,4.97
2018-03-14T15:54:20.550Z,4.53
2018-03-14T15:56:48.841Z,4.90
2018-03-14T15:59:17.150Z,4.30
2018-03-14T16:01:45.524Z,5.10
2018-03-14T16:04:13.803Z,5.07
2018-03-14T16:06:42.119Z,4.72
2018-03-14T16:09:10.432Z,5.40
2018-03-14T16:11:39.188Z,4.53
2018-03-14T16:14:07.496Z,4.33
2018-03-14T16:16:35.873Z,4.23
2018-03-14T16:19:04.452Z,5.83
2018-03-14T16:21:33.453Z,6.83
2018-03-14T16:24:01.818Z,4.70
2018-03-14T16:26:30.123Z,4.90
2018-03-14T16:28:58.546Z,4.60
2018-03-14T16:31:26.831Z,4.23
2018-03-14T16:33:55.213Z,4.47
2018-03-14T16:36:24.436Z,4.90
2018-03-14T16:38:53.728Z,4.70
2018-03-14T16:41:22.087Z,6.27
2018-03-14T16:43:50.472Z,4.63
2018-03-14T16:46:18.765Z,4.53
2018-03-14T16:48:47.969Z,4.93
2018-03-14T16:51:16.249Z,5.75
2018-03-14T16:53:44.572Z,4.80
2018-03-14T16:56:14.823Z,7.25
2018-03-14T16:58:43.219Z,4.50
2018-03-14T17:01:11.580Z,6.33
2018-03-14T17:03:39.880Z,5.60
2018-03-14T17:06:08.176Z,4.77
2018-03-14T17:08:36.552Z,5.70
2018-03-14T17:11:05.001Z,6.97
2018-03-14T17:13:33.302Z,7.10
2018-03-14T17:16:01.692Z,7.57
2018-03-14T17:18:29.996Z,7.70
2018-03-14T17:20:58.318Z,6.25
2018-03-14T17:23:26.707Z,7.23
2018-03-14T17:25:54.996Z,4.90
2018-03-14T17:28:23.853Z,3.97
2018-03-14T17:30:52.153Z,4.33
2018-03-14T17:33:20.543Z,4.75
2018-03-14T17:35:48.836Z,4.60
2018-03-14T17:38:17.146Z,4.70
2018-03-14T17:40:45.554Z,4.77
2018-03-14T17:43:13.899Z,4.12
2018-03-14T17:45:42.203Z,4.67
2018-03-14T17:48:10.491Z,4.20
2018-03-14T17:50:38.772Z,3.80
2018-03-14T17:53:07.104Z,4.60
2018-03-14T17:55:35.520Z,5.10
2018-03-14T17:58:04.303Z,5.60
2018-03-14T18:00:32.591Z,4.27
2018-03-14T18:03:00.876Z,4.60
2018-03-14T18:05:29.338Z,5.23
2018-03-14T18:07:57.651Z,4.60
2018-03-14T18:10:26.694Z,4.90
2018-03-14T18:12:56.190Z,4.40
2018-03-14T18:15:24.484Z,5.13
2018-03-14T18:17:53.672Z,5.20
2018-03-14T18:20:21.969Z,5.03
2018-03-14T18:22:50.253Z,9.17
2018-03-14T18:25:18.530Z,5.30
2018-03-14T18:27:46.852Z,5.30
2018-03-14T18:30:15.115Z,5.40
2018-03-14T18:32:43.507Z,5.90
2018-03-14T18:35:11.770Z,5.70
2018-03-14T18:37:40.084Z,5.77
2018-03-14T18:40:08.392Z,5.57
2018-03-14T18:42:37.293Z,5.70
2018-03-14T18:45:05.572Z,5.87
2018-03-14T18:47:33.855Z,5.70
2018-03-14T18:50:02.236Z,6.53
2018-03-14T18:52:30.546Z,6.87
2018-03-14T18:54:58.811Z,6.17
2018-03-14T18:57:27.135Z,5.50
2018-03-14T18:59:55.397Z,5.57
2018-03-14T19:02:26.397Z,5.80
2018-03-14T19:04:54.675Z,5.70
2018-03-14T19:07:23.769Z,5.90
2018-03-14T19:09:52.253Z,6.30
2018-03-14T19:12:21.647Z,6.50
2018-03-14T19:14:51.261Z,6.40
2018-03-14T19:17:19.551Z,6.28
2018-03-14T19:19:47.865Z,6.37
2018-03-14T19:22:16.180Z,6.35
2018-03-14T19:24:45.328Z,6.10
2018-03-14T19:27:13.657Z,6.60
2018-03-14T19:29:41.923Z,6.10
2018-03-14T19:32:10.202Z,6.10
2018-03-14T19:34:38.501Z,5.77
2018-03-14T19:37:06.787Z,13.20
2018-03-14T19:39:35.101Z,6.70
2018-03-14T19:42:03.424Z,7.00
2018-03-14T19:44:31.743Z,6.57
2018-03-14T19:47:00.001Z,6.63
2018-03-14T19:49:28.278Z,6.10
2018-03-14T19:51:56.575Z,5.83
2018-03-14T19:54:24.878Z,6.10
2018-03-14T19:56:53.182Z,5.60
2018-03-14T19:59:21.496Z,5.20
2018-03-14T20:01:49.738Z,5.57
2018-03-14T20:04:18.055Z,5.97
2018-03-14T20:06:46.331Z,5.67
2018-03-14T20:09:14.668Z,5.70
2018-03-14T20:11:42.905Z,6.00
2018-03-14T20:14:11.196Z,5.77
2018-03-14T20:16:39.499Z,5.17
2018-03-14T20:19:07.760Z,5.68
2018-03-14T20:21:36.054Z,6.93
2018-03-14T20:24:05.121Z,5.90
2018-03-14T20:26:33.402Z,5.30
2018-03-14T20:29:01.731Z,5.90
2018-03-14T20:31:30.005Z,5.80
2018-03-14T20:33:58.270Z,5.93
2018-03-14T20:36:26.578Z,5.00
2018-03-14T20:38:54.846Z,5.43
2018-03-14T20:41:23.157Z,4.93
2018-03-14T20:43:51.485Z,5.70
2018-03-14T20:46:19.770Z,4.97
2018-03-14T20:48:48.033Z,6.40
2018-03-14T20:51:16.551Z,4.87
2018-03-14T20:53:45.099Z,5.30
2018-03-14T20:56:13.456Z,5.32
2018-03-14T20:58:41.727Z,5.00
2018-03-14T21:01:10.055Z,5.00
2018-03-14T21:03:38.320Z,5.73
2018-03-14T21:06:06.724Z,4.90
2018-03-14T21:08:34.979Z,4.93
2018-03-14T21:11:04.126Z,5.45
2018-03-14T21:13:32.413Z,4.97
2018-03-14T21:16:00.728Z,5.10
2018-03-14T21:18:29.088Z,5.17
2018-03-14T21:20:58.286Z,4.80
2018-03-14T21:23:26.747Z,4.93
2018-03-14T21:25:55.073Z,5.07
2018-03-14T21:28:23.388Z,5.20
2018-03-14T21:30:51.815Z,4.70
2018-03-14T21:33:20.066Z,4.97
2018-03-14T21:35:48.359Z,5.00
2018-03-14T21:38:16.689Z,5.17
2018-03-14T21:40:45.009Z,5.30
2018-03-14T21:43:13.317Z,5.97
2018-03-14T21:45:41.595Z,5.43
2018-03-14T21:48:10.570Z,5.72
2018-03-14T21:50:38.847Z,5.40
2018-03-14T21:53:07.220Z,5.37
2018-03-14T21:55:39.723Z,5.57
2018-03-14T21:58:08.029Z,5.90
2018-03-14T22:00:36.298Z,6.70
2018-03-14T22:03:05.611Z,5.90
2018-03-14T22:05:33.871Z,5.50
2018-03-14T22:08:02.258Z,6.03
2018-03-14T22:10:30.465Z,5.90
2018-03-14T22:12:58.773Z,6.53
2018-03-14T22:15:27.061Z,6.37
2018-03-14T22:17:55.328Z,7.00
2018-03-14T22:20:23.624Z,6.80
2018-03-14T22:22:51.887Z,6.53
2018-03-14T22:25:20.265Z,7.10
2018-03-14T22:27:48.512Z,6.63
2018-03-14T22:30:16.816Z,7.10
2018-03-14T22:32:45.139Z,7.03
2018-03-14T22:35:13.696Z,7.63
2018-03-14T22:37:41.973Z,7.10
2018-03-14T22:40:10.813Z,7.05
2018-03-14T22:42:39.092Z,7.20
2018-03-14T22:45:07.441Z,7.00
2018-03-14T22:47:35.777Z,7.53
2018-03-14T22:50:04.464Z,7.53
2018-03-14T22:52:32.705Z,7.00
2018-03-14T22:55:00.988Z,6.65
2018-03-14T22:57:29.325Z,6.53
2018-03-14T22:59:57.655Z,7.15
2018-03-14T23:02:26.607Z,7.60
2018-03-14T23:04:54.964Z,7.32
2018-03-14T23:07:23.372Z,6.87
2018-03-14T23:09:51.605Z,7.10
2018-03-14T23:12:19.885Z,7.67
2018-03-14T23:14:48.268Z,7.40
2018-03-14T23:17:16.570Z,7.13
2018-03-14T23:19:44.820Z,7.07
2018-03-14T23:22:13.231Z,7.50
2018-03-14T23:24:41.569Z,6.63
2018-03-14T23:27:09.854Z,6.63
2018-03-14T23:29:38.122Z,7.07
2018-03-14T23:32:06.395Z,7.17
2018-03-14T23:34:34.651Z,7.53
2018-03-14T23:37:03.050Z,6.80
2018-03-14T23:39:31.339Z,7.07
2018-03-14T23:41:59.638Z,6.70
2018-03-14T23:44:28.065Z,7.27
2018-03-14T23:46:56.420Z,7.00
2018-03-14T23:49:24.689Z,7.60
2018-03-14T23:51:53.038Z,7.30
2018-03-14T23:54:21.337Z,7.60
2018-03-14T23:56:49.652Z,7.27
2018-03-14T23:59:17.899Z,7.90
